Flight Track Log - Related Links

Times and Time Zones

All times are in EDT time to prevent confusion due to time zone crossing. See the N7667S flight status page for this flight to view local times or setup timezone preferences in your user account.

Time Position Orientation Groundspeed Altitude Reporting Facility
EDT Latitude Longitude Course Direction KTS MPH feet Rate Location/Type
Mon 09:12:07 AM 40.5667 -73.6667 276° West 156 180 500  Level New York TRACON
Mon 09:13:07 AM 40.5667 -73.7167 270° West 154 177 500  Level New York TRACON
Mon 09:14:07 AM 40.5667 -73.7833 270° West 156 180 500  Level New York TRACON
Mon 09:15:01 AM 40.5667 -73.8333 270° West 158 182 500  Level New York TRACON
Mon 09:16:01 AM 40.5667 -73.8833 270° West 157 181 500 300 Level New York TRACON
Mon 09:17:00 AM 41.0669 -73.7076 276° West  Level Estimated
Mon 09:17:01 AM 40.6000 -73.9167 323° Northwest 144 166 1,100  Level New York TRACON
Mon 09:18:01 AM 40.6333 -73.9500 323° Northwest 155 178 1,200 -14 Climbing New York TRACON
Mon 09:20:00 AM 40.6851 -73.8890 42° Northeast  Level FlightAware Approximate
Mon 09:27:00 AM 40.9157 -73.7797 25° Northeast  Level Estimated
Mon 09:28:00 AM 40.9272 -73.7360 71° East  Level FlightAware Approximate
Mon 09:29:00 AM 40.9618 -73.7290 23° Northeast  Level Estimated
Mon 09:30:00 AM 40.9902 -73.7019 36° Northeast  Level FlightAware Approximate
Mon 09:30:55 AM 40.6000 -73.9167 143° Southeast 156 180 900  Level New York TRACON
Mon 09:31:00 AM 41.0186 -73.6747 36° Northeast  Level FlightAware Approximate
Mon 09:31:55 AM 40.5667 -73.8667 131° Southeast 153 176 700  Level New York TRACON
Mon 09:32:00 AM 41.0470 -73.6476 36° Northeast  Level FlightAware Approximate
Mon 09:32:55 AM 40.5667 -73.8167 90° East 145 167 500  Level New York TRACON
Mon 09:33:00 AM 41.0754 -73.6204 36° Northeast  Level FlightAware Approximate
Mon 09:33:55 AM 40.5667 -73.7667 90° East 158 182 500  Level New York TRACON
Mon 09:34:00 AM 41.1037 -73.5932 36° Northeast  Level FlightAware Approximate
Mon 09:34:55 AM 40.5833 -73.7000 72° East 159 183 500  Level New York TRACON
Mon 09:35:00 AM 41.1321 -73.5660 36° Northeast  Level FlightAware Approximate
Mon 09:35:55 AM 40.5833 -73.6500 90° East 159 183 500  Level New York TRACON
Mon 09:36:49 AM 40.5833 -73.6000 90° East 161 185 500  Level New York TRACON
Mon 09:38:00 AM 40.6251 -73.6092 350° North  Level Estimated
Mon 09:45:00 AM 40.8725 -73.6641 350° North  Level Estimated
Mon 09:46:00 AM 40.9078 -73.6720 350° North  Level Estimated
Mon 09:47:00 AM 40.9431 -73.6799 350° North  Level Estimated
Mon 09:48:00 AM 40.9784 -73.6878 350° North  Level Estimated
Mon 09:49:00 AM 41.0138 -73.6956 350° North  Level Estimated
Mon 09:50:00 AM 41.0491 -73.7036 350° North  Level Estimated
Mon 09:51:00 AM 41.0669 -73.7076 350° North  Level Estimated
Mon 09:52:00 AM 41.0669 -73.7076 37° Northeast  Level Estimated

Login

Don't have an account? Register now (free) for customized features, flight alerts, and more!